<?xml version="1.0" encoding="UTF-8"?>
<gpx xmlns="http://www.topografix.com/GPX/1/1" creator="GPSies http://www.gpsies.com - Peraza - La Laja - Roques - Peraza" version="1.1" xmlns:xsi="http://www.w3.org/2001/XMLSchema-instance" xsi:schemaLocation="http://www.topografix.com/GPX/1/1 http://www.topografix.com/GPX/1/1/gpx.xsd">
  <metadata>
    <name>Peraza - La Laja - Roques - Peraza</name>
    <copyright author="GPSies.com" />
    <link href="http://www.gpsies.com/map.do?fileId=soqwgcfjeisjdmtb">
      <text>Peraza - La Laja - Roques - Peraza on GPSies.com</text>
    </link>
    <time>2009-09-22T13:07:40Z</time>
  </metadata>
  <trk>
    <name>Peraza - La Laja - Roques - Peraza on GPSies.com</name>
    <link href="http://www.gpsies.com/map.do?fileId=soqwgcfjeisjdmtb" />
    <trkseg>
      <trkpt lat="28.09955160" lon="-17.1846766">
        <ele>933.00000</ele>
        <time>2009-09-22T13:07:40Z</time>
      </trkpt>
      <trkpt lat="28.09957330" lon="-17.1846983">
        <ele>933.00000</ele>
        <time>2009-09-22T13:07:41Z</time>
      </trkpt>
      <trkpt lat="28.09959330" lon="-17.1846133">
        <ele>846.00000</ele>
        <time>2009-09-22T13:07:44Z</time>
      </trkpt>
      <trkpt lat="28.09976500" lon="-17.1846766">
        <ele>846.00000</ele>
        <time>2009-09-22T13:07:52Z</time>
      </trkpt>
      <trkpt lat="28.09989500" lon="-17.1847633">
        <ele>846.00000</ele>
        <time>2009-09-22T13:07:58Z</time>
      </trkpt>
      <trkpt lat="28.09998000" lon="-17.1847200">
        <ele>846.00000</ele>
        <time>2009-09-22T13:08:01Z</time>
      </trkpt>
      <trkpt lat="28.09993660" lon="-17.1850200">
        <ele>846.00000</ele>
        <time>2009-09-22T13:08:12Z</time>
      </trkpt>
      <trkpt lat="28.10002330" lon="-17.1849983">
        <ele>846.00000</ele>
        <time>2009-09-22T13:08:16Z</time>
      </trkpt>
      <trkpt lat="28.10010830" lon="-17.1850200">
        <ele>846.00000</ele>
        <time>2009-09-22T13:08:19Z</time>
      </trkpt>
      <trkpt lat="28.10023830" lon="-17.1851500">
        <ele>846.00000</ele>
        <time>2009-09-22T13:08:26Z</time>
      </trkpt>
      <trkpt lat="28.10049500" lon="-17.1853216">
        <ele>795.00000</ele>
        <time>2009-09-22T13:08:38Z</time>
      </trkpt>
      <trkpt lat="28.10066660" lon="-17.1853000">
        <ele>795.00000</ele>
        <time>2009-09-22T13:08:45Z</time>
      </trkpt>
      <trkpt lat="28.10101000" lon="-17.1853850">
        <ele>795.00000</ele>
        <time>2009-09-22T13:08:59Z</time>
      </trkpt>
      <trkpt lat="28.10113830" lon="-17.1855566">
        <ele>822.00000</ele>
        <time>2009-09-22T13:09:07Z</time>
      </trkpt>
      <trkpt lat="28.10139660" lon="-17.1856433">
        <ele>776.00000</ele>
        <time>2009-09-22T13:09:18Z</time>
      </trkpt>
      <trkpt lat="28.10165330" lon="-17.1856216">
        <ele>776.00000</ele>
        <time>2009-09-22T13:09:28Z</time>
      </trkpt>
      <trkpt lat="28.10167500" lon="-17.1857716">
        <ele>776.00000</ele>
        <time>2009-09-22T13:09:33Z</time>
      </trkpt>
      <trkpt lat="28.10176160" lon="-17.1857066">
        <ele>776.00000</ele>
        <time>2009-09-22T13:09:38Z</time>
      </trkpt>
      <trkpt lat="28.10178330" lon="-17.1859216">
        <ele>776.00000</ele>
        <time>2009-09-22T13:09:45Z</time>
      </trkpt>
      <trkpt lat="28.10189000" lon="-17.1858783">
        <ele>776.00000</ele>
        <time>2009-09-22T13:09:50Z</time>
      </trkpt>
      <trkpt lat="28.10191160" lon="-17.1860283">
        <ele>776.00000</ele>
        <time>2009-09-22T13:09:55Z</time>
      </trkpt>
      <trkpt lat="28.10189000" lon="-17.1862216">
        <ele>776.00000</ele>
        <time>2009-09-22T13:10:02Z</time>
      </trkpt>
      <trkpt lat="28.10238330" lon="-17.1862216">
        <ele>720.00000</ele>
        <time>2009-09-22T13:10:22Z</time>
      </trkpt>
      <trkpt lat="28.10255500" lon="-17.1861583">
        <ele>720.00000</ele>
        <time>2009-09-22T13:10:29Z</time>
      </trkpt>
      <trkpt lat="28.10270500" lon="-17.1862433">
        <ele>720.00000</ele>
        <time>2009-09-22T13:10:36Z</time>
      </trkpt>
      <trkpt lat="28.10283500" lon="-17.1862650">
        <ele>756.00000</ele>
        <time>2009-09-22T13:10:41Z</time>
      </trkpt>
      <trkpt lat="28.10300660" lon="-17.1863933">
        <ele>728.00000</ele>
        <time>2009-09-22T13:10:49Z</time>
      </trkpt>
      <trkpt lat="28.10324160" lon="-17.1863933">
        <ele>728.00000</ele>
        <time>2009-09-22T13:10:59Z</time>
      </trkpt>
      <trkpt lat="28.10304830" lon="-17.1866516">
        <ele>728.00000</ele>
        <time>2009-09-22T13:11:11Z</time>
      </trkpt>
      <trkpt lat="28.10296330" lon="-17.1869083">
        <ele>728.00000</ele>
        <time>2009-09-22T13:11:20Z</time>
      </trkpt>
      <trkpt lat="28.10298500" lon="-17.1869516">
        <ele>728.00000</ele>
        <time>2009-09-22T13:11:22Z</time>
      </trkpt>
      <trkpt lat="28.10307000" lon="-17.1869950">
        <ele>728.00000</ele>
        <time>2009-09-22T13:11:26Z</time>
      </trkpt>
      <trkpt lat="28.10332830" lon="-17.1870166">
        <ele>728.00000</ele>
        <time>2009-09-22T13:11:36Z</time>
      </trkpt>
      <trkpt lat="28.10343500" lon="-17.1872083">
        <ele>725.00000</ele>
        <time>2009-09-22T13:11:44Z</time>
      </trkpt>
      <trkpt lat="28.10352160" lon="-17.1872733">
        <ele>725.00000</ele>
        <time>2009-09-22T13:11:48Z</time>
      </trkpt>
      <trkpt lat="28.10373500" lon="-17.1872733">
        <ele>725.00000</ele>
        <time>2009-09-22T13:11:57Z</time>
      </trkpt>
      <trkpt lat="28.10399330" lon="-17.1875316">
        <ele>692.00000</ele>
        <time>2009-09-22T13:12:11Z</time>
      </trkpt>
      <trkpt lat="28.10427160" lon="-17.1873166">
        <ele>692.00000</ele>
        <time>2009-09-22T13:12:24Z</time>
      </trkpt>
      <trkpt lat="28.10429330" lon="-17.1871666">
        <ele>692.00000</ele>
        <time>2009-09-22T13:12:30Z</time>
      </trkpt>
      <trkpt lat="28.10446500" lon="-17.1870166">
        <ele>678.00000</ele>
        <time>2009-09-22T13:12:38Z</time>
      </trkpt>
      <trkpt lat="28.10470160" lon="-17.1871016">
        <ele>664.00000</ele>
        <time>2009-09-22T13:12:48Z</time>
      </trkpt>
      <trkpt lat="28.10508660" lon="-17.1870166">
        <ele>635.00000</ele>
        <time>2009-09-22T13:13:04Z</time>
      </trkpt>
      <trkpt lat="28.10525830" lon="-17.1868866">
        <ele>635.00000</ele>
        <time>2009-09-22T13:13:12Z</time>
      </trkpt>
      <trkpt lat="28.10536660" lon="-17.1869083">
        <ele>635.00000</ele>
        <time>2009-09-22T13:13:16Z</time>
      </trkpt>
      <trkpt lat="28.10549500" lon="-17.1870166">
        <ele>605.00000</ele>
        <time>2009-09-22T13:13:23Z</time>
      </trkpt>
      <trkpt lat="28.10571000" lon="-17.1870166">
        <ele>605.00000</ele>
        <time>2009-09-22T13:13:31Z</time>
      </trkpt>
      <trkpt lat="28.10590330" lon="-17.1869516">
        <ele>605.00000</ele>
        <time>2009-09-22T13:13:40Z</time>
      </trkpt>
      <trkpt lat="28.10633160" lon="-17.1870166">
        <ele>578.00000</ele>
        <time>2009-09-22T13:13:57Z</time>
      </trkpt>
      <trkpt lat="28.10639660" lon="-17.1872300">
        <ele>605.00000</ele>
        <time>2009-09-22T13:14:05Z</time>
      </trkpt>
      <trkpt lat="28.10650330" lon="-17.1872950">
        <ele>605.00000</ele>
        <time>2009-09-22T13:14:10Z</time>
      </trkpt>
      <trkpt lat="28.10678160" lon="-17.1873800">
        <ele>605.00000</ele>
        <time>2009-09-22T13:14:21Z</time>
      </trkpt>
      <trkpt lat="28.10697500" lon="-17.1873800">
        <ele>605.00000</ele>
        <time>2009-09-22T13:14:29Z</time>
      </trkpt>
      <trkpt lat="28.10708330" lon="-17.1874450">
        <ele>605.00000</ele>
        <time>2009-09-22T13:14:34Z</time>
      </trkpt>
      <trkpt lat="28.10689000" lon="-17.1880883">
        <ele>614.00000</ele>
        <time>2009-09-22T13:14:58Z</time>
      </trkpt>
      <trkpt lat="28.10676160" lon="-17.1882383">
        <ele>614.00000</ele>
        <time>2009-09-22T13:15:05Z</time>
      </trkpt>
      <trkpt lat="28.10665330" lon="-17.1884966">
        <ele>614.00000</ele>
        <time>2009-09-22T13:15:15Z</time>
      </trkpt>
      <trkpt lat="28.10676160" lon="-17.1885616">
        <ele>614.00000</ele>
        <time>2009-09-22T13:15:20Z</time>
      </trkpt>
      <trkpt lat="28.10708330" lon="-17.1886250">
        <ele>614.00000</ele>
        <time>2009-09-22T13:15:33Z</time>
      </trkpt>
      <trkpt lat="28.10755500" lon="-17.1886250">
        <ele>553.00000</ele>
        <time>2009-09-22T13:15:52Z</time>
      </trkpt>
      <trkpt lat="28.10781160" lon="-17.1886683">
        <ele>553.00000</ele>
        <time>2009-09-22T13:16:03Z</time>
      </trkpt>
      <trkpt lat="28.10781160" lon="-17.1887966">
        <ele>553.00000</ele>
        <time>2009-09-22T13:16:07Z</time>
      </trkpt>
      <trkpt lat="28.10764000" lon="-17.1891183">
        <ele>553.00000</ele>
        <time>2009-09-22T13:16:20Z</time>
      </trkpt>
      <trkpt lat="28.10757660" lon="-17.1893550">
        <ele>553.00000</ele>
        <time>2009-09-22T13:16:29Z</time>
      </trkpt>
      <trkpt lat="28.10759830" lon="-17.1894833">
        <ele>553.00000</ele>
        <time>2009-09-22T13:16:34Z</time>
      </trkpt>
      <trkpt lat="28.10751160" lon="-17.1896766">
        <ele>575.00000</ele>
        <time>2009-09-22T13:16:41Z</time>
      </trkpt>
      <trkpt lat="28.10762000" lon="-17.1898916">
        <ele>575.00000</ele>
        <time>2009-09-22T13:16:50Z</time>
      </trkpt>
      <trkpt lat="28.10766160" lon="-17.1899350">
        <ele>575.00000</ele>
        <time>2009-09-22T13:16:52Z</time>
      </trkpt>
      <trkpt lat="28.10774830" lon="-17.1899350">
        <ele>575.00000</ele>
        <time>2009-09-22T13:16:56Z</time>
      </trkpt>
      <trkpt lat="28.10785500" lon="-17.1897833">
        <ele>575.00000</ele>
        <time>2009-09-22T13:17:03Z</time>
      </trkpt>
      <trkpt lat="28.10807000" lon="-17.1897200">
        <ele>530.00000</ele>
        <time>2009-09-22T13:17:12Z</time>
      </trkpt>
      <trkpt lat="28.10828500" lon="-17.1894833">
        <ele>518.00000</ele>
        <time>2009-09-22T13:17:24Z</time>
      </trkpt>
      <trkpt lat="28.10849830" lon="-17.1894200">
        <ele>518.00000</ele>
        <time>2009-09-22T13:17:32Z</time>
      </trkpt>
      <trkpt lat="28.10858500" lon="-17.1895266">
        <ele>518.00000</ele>
        <time>2009-09-22T13:17:38Z</time>
      </trkpt>
      <trkpt lat="28.10860660" lon="-17.1898266">
        <ele>530.00000</ele>
        <time>2009-09-22T13:17:48Z</time>
      </trkpt>
      <trkpt lat="28.10873500" lon="-17.1899983">
        <ele>530.00000</ele>
        <time>2009-09-22T13:17:56Z</time>
      </trkpt>
      <trkpt lat="28.10873500" lon="-17.1901066">
        <ele>530.00000</ele>
        <time>2009-09-22T13:18:00Z</time>
      </trkpt>
      <trkpt lat="28.10886330" lon="-17.1901916">
        <ele>447.00000</ele>
        <time>2009-09-22T13:18:06Z</time>
      </trkpt>
      <trkpt lat="28.10888500" lon="-17.1903200">
        <ele>447.00000</ele>
        <time>2009-09-22T13:18:11Z</time>
      </trkpt>
      <trkpt lat="28.10903500" lon="-17.1903416">
        <ele>447.00000</ele>
        <time>2009-09-22T13:18:17Z</time>
      </trkpt>
      <trkpt lat="28.10907830" lon="-17.1905350">
        <ele>474.00000</ele>
        <time>2009-09-22T13:18:24Z</time>
      </trkpt>
      <trkpt lat="28.10897160" lon="-17.1907500">
        <ele>474.00000</ele>
        <time>2009-09-22T13:18:32Z</time>
      </trkpt>
      <trkpt lat="28.10905660" lon="-17.1908566">
        <ele>474.00000</ele>
        <time>2009-09-22T13:18:37Z</time>
      </trkpt>
      <trkpt lat="28.10918500" lon="-17.1907500">
        <ele>474.00000</ele>
        <time>2009-09-22T13:18:44Z</time>
      </trkpt>
      <trkpt lat="28.10927160" lon="-17.1908350">
        <ele>474.00000</ele>
        <time>2009-09-22T13:18:48Z</time>
      </trkpt>
      <trkpt lat="28.10931500" lon="-17.1907716">
        <ele>474.00000</ele>
        <time>2009-09-22T13:18:51Z</time>
      </trkpt>
      <trkpt lat="28.10942160" lon="-17.1907500">
        <ele>474.00000</ele>
        <time>2009-09-22T13:18:56Z</time>
      </trkpt>
      <trkpt lat="28.10955000" lon="-17.1908133">
        <ele>474.00000</ele>
        <time>2009-09-22T13:19:01Z</time>
      </trkpt>
      <trkpt lat="28.10965830" lon="-17.1907716">
        <ele>461.00000</ele>
        <time>2009-09-22T13:19:06Z</time>
      </trkpt>
      <trkpt lat="28.10980830" lon="-17.1909433">
        <ele>461.00000</ele>
        <time>2009-09-22T13:19:14Z</time>
      </trkpt>
      <trkpt lat="28.10993660" lon="-17.1910500">
        <ele>461.00000</ele>
        <time>2009-09-22T13:19:21Z</time>
      </trkpt>
      <trkpt lat="28.10998000" lon="-17.1912216">
        <ele>461.00000</ele>
        <time>2009-09-22T13:19:27Z</time>
      </trkpt>
      <trkpt lat="28.10983000" lon="-17.1913283">
        <ele>473.00000</ele>
        <time>2009-09-22T13:19:34Z</time>
      </trkpt>
      <trkpt lat="28.10978660" lon="-17.1916516">
        <ele>473.00000</ele>
        <time>2009-09-22T13:19:46Z</time>
      </trkpt>
      <trkpt lat="28.10968000" lon="-17.1918433">
        <ele>473.00000</ele>
        <time>2009-09-22T13:19:54Z</time>
      </trkpt>
      <trkpt lat="28.10963660" lon="-17.1924016">
        <ele>479.00000</ele>
        <time>2009-09-22T13:20:13Z</time>
      </trkpt>
      <trkpt lat="28.10980830" lon="-17.1925733">
        <ele>479.00000</ele>
        <time>2009-09-22T13:20:23Z</time>
      </trkpt>
      <trkpt lat="28.10989330" lon="-17.1927883">
        <ele>479.00000</ele>
        <time>2009-09-22T13:20:31Z</time>
      </trkpt>
      <trkpt lat="28.11021500" lon="-17.1926383">
        <ele>479.00000</ele>
        <time>2009-09-22T13:20:45Z</time>
      </trkpt>
      <trkpt lat="28.11049500" lon="-17.1928316">
        <ele>507.00000</ele>
        <time>2009-09-22T13:20:58Z</time>
      </trkpt>
      <trkpt lat="28.11060160" lon="-17.1931750">
        <ele>498.00000</ele>
        <time>2009-09-22T13:21:11Z</time>
      </trkpt>
      <trkpt lat="28.11066660" lon="-17.1930233">
        <ele>498.00000</ele>
        <time>2009-09-22T13:21:17Z</time>
      </trkpt>
      <trkpt lat="28.11075160" lon="-17.1932600">
        <ele>498.00000</ele>
        <time>2009-09-22T13:21:26Z</time>
      </trkpt>
      <trkpt lat="28.11092330" lon="-17.1935816">
        <ele>498.00000</ele>
        <time>2009-09-22T13:21:39Z</time>
      </trkpt>
      <trkpt lat="28.11096660" lon="-17.1937966">
        <ele>500.00000</ele>
        <time>2009-09-22T13:21:47Z</time>
      </trkpt>
      <trkpt lat="28.11096660" lon="-17.1940333">
        <ele>500.00000</ele>
        <time>2009-09-22T13:21:55Z</time>
      </trkpt>
      <trkpt lat="28.11109500" lon="-17.1942683">
        <ele>500.00000</ele>
        <time>2009-09-22T13:22:05Z</time>
      </trkpt>
      <trkpt lat="28.11116000" lon="-17.1945050">
        <ele>500.00000</ele>
        <time>2009-09-22T13:22:14Z</time>
      </trkpt>
      <trkpt lat="28.11111660" lon="-17.1947616">
        <ele>521.00000</ele>
        <time>2009-09-22T13:22:23Z</time>
      </trkpt>
      <trkpt lat="28.11124500" lon="-17.1949550">
        <ele>521.00000</ele>
        <time>2009-09-22T13:22:31Z</time>
      </trkpt>
      <trkpt lat="28.11152500" lon="-17.1949766">
        <ele>513.00000</ele>
        <time>2009-09-22T13:22:43Z</time>
      </trkpt>
      <trkpt lat="28.11163160" lon="-17.1952133">
        <ele>513.00000</ele>
        <time>2009-09-22T13:22:52Z</time>
      </trkpt>
      <trkpt lat="28.11150330" lon="-17.1960933">
        <ele>529.00000</ele>
        <time>2009-09-22T13:23:24Z</time>
      </trkpt>
      <trkpt lat="28.11124500" lon="-17.1966283">
        <ele>567.00000</ele>
        <time>2009-09-22T13:23:45Z</time>
      </trkpt>
      <trkpt lat="28.11122500" lon="-17.1968650">
        <ele>567.00000</ele>
        <time>2009-09-22T13:23:53Z</time>
      </trkpt>
      <trkpt lat="28.11111660" lon="-17.1971866">
        <ele>577.00000</ele>
        <time>2009-09-22T13:24:06Z</time>
      </trkpt>
      <trkpt lat="28.11092330" lon="-17.1973366">
        <ele>577.00000</ele>
        <time>2009-09-22T13:24:15Z</time>
      </trkpt>
      <trkpt lat="28.11092330" lon="-17.1972733">
        <ele>577.00000</ele>
        <time>2009-09-22T13:24:17Z</time>
      </trkpt>
      <trkpt lat="28.11079500" lon="-17.1972516">
        <ele>577.00000</ele>
        <time>2009-09-22T13:24:22Z</time>
      </trkpt>
      <trkpt lat="28.11058000" lon="-17.1974233">
        <ele>577.00000</ele>
        <time>2009-09-22T13:24:33Z</time>
      </trkpt>
      <trkpt lat="28.11060160" lon="-17.1974450">
        <ele>577.00000</ele>
        <time>2009-09-22T13:24:34Z</time>
      </trkpt>
      <trkpt lat="28.11055830" lon="-17.1977666">
        <ele>577.00000</ele>
        <time>2009-09-22T13:24:46Z</time>
      </trkpt>
      <trkpt lat="28.11038660" lon="-17.1980450">
        <ele>633.00000</ele>
        <time>2009-09-22T13:24:58Z</time>
      </trkpt>
      <trkpt lat="28.11019500" lon="-17.1981733">
        <ele>633.00000</ele>
        <time>2009-09-22T13:25:06Z</time>
      </trkpt>
      <trkpt lat="28.11006500" lon="-17.1983250">
        <ele>633.00000</ele>
        <time>2009-09-22T13:25:14Z</time>
      </trkpt>
      <trkpt lat="28.10989330" lon="-17.1984100">
        <ele>633.00000</ele>
        <time>2009-09-22T13:25:21Z</time>
      </trkpt>
      <trkpt lat="28.10991500" lon="-17.1983883">
        <ele>633.00000</ele>
        <time>2009-09-22T13:25:23Z</time>
      </trkpt>
      <trkpt lat="28.10972160" lon="-17.1983883">
        <ele>633.00000</ele>
        <time>2009-09-22T13:25:30Z</time>
      </trkpt>
      <trkpt lat="28.10998000" lon="-17.1985383">
        <ele>633.00000</ele>
        <time>2009-09-22T13:25:42Z</time>
      </trkpt>
      <trkpt lat="28.10998000" lon="-17.1986683">
        <ele>633.00000</ele>
        <time>2009-09-22T13:25:47Z</time>
      </trkpt>
      <trkpt lat="28.10989330" lon="-17.1990750">
        <ele>638.00000</ele>
        <time>2009-09-22T13:26:01Z</time>
      </trkpt>
      <trkpt lat="28.10972160" lon="-17.1994183">
        <ele>638.00000</ele>
        <time>2009-09-22T13:26:15Z</time>
      </trkpt>
      <trkpt lat="28.10957160" lon="-17.1998050">
        <ele>691.00000</ele>
        <time>2009-09-22T13:26:30Z</time>
      </trkpt>
      <trkpt lat="28.10961500" lon="-17.1994400">
        <ele>638.00000</ele>
        <time>2009-09-22T13:26:43Z</time>
      </trkpt>
      <trkpt lat="28.11019500" lon="-17.2001266">
        <ele>666.00000</ele>
        <time>2009-09-22T13:27:17Z</time>
      </trkpt>
      <trkpt lat="28.11023660" lon="-17.2004266">
        <ele>703.00000</ele>
        <time>2009-09-22T13:27:27Z</time>
      </trkpt>
      <trkpt lat="28.11019500" lon="-17.2005983">
        <ele>703.00000</ele>
        <time>2009-09-22T13:27:34Z</time>
      </trkpt>
      <trkpt lat="28.10998000" lon="-17.2008566">
        <ele>703.00000</ele>
        <time>2009-09-22T13:27:46Z</time>
      </trkpt>
      <trkpt lat="28.10985160" lon="-17.2009416">
        <ele>703.00000</ele>
        <time>2009-09-22T13:27:52Z</time>
      </trkpt>
      <trkpt lat="28.10957160" lon="-17.2012216">
        <ele>722.00000</ele>
        <time>2009-09-22T13:28:07Z</time>
      </trkpt>
      <trkpt lat="28.10950830" lon="-17.2013716">
        <ele>731.00000</ele>
        <time>2009-09-22T13:28:13Z</time>
      </trkpt>
      <trkpt lat="28.10950830" lon="-17.2015433">
        <ele>731.00000</ele>
        <time>2009-09-22T13:28:19Z</time>
      </trkpt>
      <trkpt lat="28.10983000" lon="-17.2021650">
        <ele>764.00000</ele>
        <time>2009-09-22T13:28:45Z</time>
      </trkpt>
      <trkpt lat="28.11002330" lon="-17.2027233">
        <ele>764.00000</ele>
        <time>2009-09-22T13:29:06Z</time>
      </trkpt>
      <trkpt lat="28.10998000" lon="-17.2029166">
        <ele>796.00000</ele>
        <time>2009-09-22T13:29:13Z</time>
      </trkpt>
      <trkpt lat="28.11002330" lon="-17.2030666">
        <ele>796.00000</ele>
        <time>2009-09-22T13:29:18Z</time>
      </trkpt>
      <trkpt lat="28.11004330" lon="-17.2033450">
        <ele>796.00000</ele>
        <time>2009-09-22T13:29:28Z</time>
      </trkpt>
      <trkpt lat="28.11017330" lon="-17.2034950">
        <ele>796.00000</ele>
        <time>2009-09-22T13:29:36Z</time>
      </trkpt>
      <trkpt lat="28.11004330" lon="-17.2036450">
        <ele>796.00000</ele>
        <time>2009-09-22T13:29:43Z</time>
      </trkpt>
      <trkpt lat="28.11010830" lon="-17.2038600">
        <ele>825.00000</ele>
        <time>2009-09-22T13:29:51Z</time>
      </trkpt>
      <trkpt lat="28.11010830" lon="-17.2040966">
        <ele>825.00000</ele>
        <time>2009-09-22T13:29:59Z</time>
      </trkpt>
      <trkpt lat="28.11019500" lon="-17.2043316">
        <ele>825.00000</ele>
        <time>2009-09-22T13:30:08Z</time>
      </trkpt>
      <trkpt lat="28.11017330" lon="-17.2045900">
        <ele>833.00000</ele>
        <time>2009-09-22T13:30:18Z</time>
      </trkpt>
      <trkpt lat="28.11055830" lon="-17.2047833">
        <ele>849.00000</ele>
        <time>2009-09-22T13:30:34Z</time>
      </trkpt>
      <trkpt lat="28.11053830" lon="-17.2047833">
        <ele>849.00000</ele>
        <time>2009-09-22T13:30:35Z</time>
      </trkpt>
      <trkpt lat="28.11062330" lon="-17.2049983">
        <ele>849.00000</ele>
        <time>2009-09-22T13:30:44Z</time>
      </trkpt>
      <trkpt lat="28.11071000" lon="-17.2051266">
        <ele>849.00000</ele>
        <time>2009-09-22T13:30:49Z</time>
      </trkpt>
      <trkpt lat="28.11105330" lon="-17.2051266">
        <ele>849.00000</ele>
        <time>2009-09-22T13:31:03Z</time>
      </trkpt>
      <trkpt lat="28.11077330" lon="-17.2052550">
        <ele>849.00000</ele>
        <time>2009-09-22T13:31:15Z</time>
      </trkpt>
      <trkpt lat="28.11073000" lon="-17.2051900">
        <ele>849.00000</ele>
        <time>2009-09-22T13:31:18Z</time>
      </trkpt>
      <trkpt lat="28.11051660" lon="-17.2052766">
        <ele>849.00000</ele>
        <time>2009-09-22T13:31:27Z</time>
      </trkpt>
      <trkpt lat="28.11053830" lon="-17.2054050">
        <ele>849.00000</ele>
        <time>2009-09-22T13:31:32Z</time>
      </trkpt>
      <trkpt lat="28.11062330" lon="-17.2055333">
        <ele>820.00000</ele>
        <time>2009-09-22T13:31:37Z</time>
      </trkpt>
      <trkpt lat="28.11040830" lon="-17.2054050">
        <ele>833.00000</ele>
        <time>2009-09-22T13:31:47Z</time>
      </trkpt>
      <trkpt lat="28.11028000" lon="-17.2058133">
        <ele>839.00000</ele>
        <time>2009-09-22T13:32:02Z</time>
      </trkpt>
      <trkpt lat="28.11030160" lon="-17.2059200">
        <ele>839.00000</ele>
        <time>2009-09-22T13:32:06Z</time>
      </trkpt>
      <trkpt lat="28.11028000" lon="-17.2060700">
        <ele>839.00000</ele>
        <time>2009-09-22T13:32:12Z</time>
      </trkpt>
      <trkpt lat="28.11017330" lon="-17.2062200">
        <ele>839.00000</ele>
        <time>2009-09-22T13:32:18Z</time>
      </trkpt>
      <trkpt lat="28.11006500" lon="-17.2063066">
        <ele>836.00000</ele>
        <time>2009-09-22T13:32:24Z</time>
      </trkpt>
      <trkpt lat="28.10998000" lon="-17.2064133">
        <ele>836.00000</ele>
        <time>2009-09-22T13:32:29Z</time>
      </trkpt>
      <trkpt lat="28.10976500" lon="-17.2067350">
        <ele>836.00000</ele>
        <time>2009-09-22T13:32:43Z</time>
      </trkpt>
      <trkpt lat="28.10963660" lon="-17.2068216">
        <ele>836.00000</ele>
        <time>2009-09-22T13:32:49Z</time>
      </trkpt>
      <trkpt lat="28.10940000" lon="-17.2068433">
        <ele>861.00000</ele>
        <time>2009-09-22T13:32:59Z</time>
      </trkpt>
      <trkpt lat="28.10929330" lon="-17.2067566">
        <ele>861.00000</ele>
        <time>2009-09-22T13:33:04Z</time>
      </trkpt>
      <trkpt lat="28.10873500" lon="-17.2072283">
        <ele>894.00000</ele>
        <time>2009-09-22T13:33:32Z</time>
      </trkpt>
      <trkpt lat="28.10852000" lon="-17.2073800">
        <ele>894.00000</ele>
        <time>2009-09-22T13:33:42Z</time>
      </trkpt>
      <trkpt lat="28.10847830" lon="-17.2074866">
        <ele>894.00000</ele>
        <time>2009-09-22T13:33:46Z</time>
      </trkpt>
      <trkpt lat="28.10837000" lon="-17.2074433">
        <ele>894.00000</ele>
        <time>2009-09-22T13:33:51Z</time>
      </trkpt>
      <trkpt lat="28.10837000" lon="-17.2075083">
        <ele>894.00000</ele>
        <time>2009-09-22T13:33:53Z</time>
      </trkpt>
      <trkpt lat="28.10822000" lon="-17.2074650">
        <ele>894.00000</ele>
        <time>2009-09-22T13:33:59Z</time>
      </trkpt>
      <trkpt lat="28.10798330" lon="-17.2072500">
        <ele>894.00000</ele>
        <time>2009-09-22T13:34:11Z</time>
      </trkpt>
      <trkpt lat="28.10794160" lon="-17.2075300">
        <ele>894.00000</ele>
        <time>2009-09-22T13:34:21Z</time>
      </trkpt>
      <trkpt lat="28.10783330" lon="-17.2076150">
        <ele>903.00000</ele>
        <time>2009-09-22T13:34:26Z</time>
      </trkpt>
      <trkpt lat="28.10796330" lon="-17.2077233">
        <ele>894.00000</ele>
        <time>2009-09-22T13:34:33Z</time>
      </trkpt>
      <trkpt lat="28.10787660" lon="-17.2078516">
        <ele>903.00000</ele>
        <time>2009-09-22T13:34:39Z</time>
      </trkpt>
      <trkpt lat="28.10774830" lon="-17.2082800">
        <ele>928.00000</ele>
        <time>2009-09-22T13:34:55Z</time>
      </trkpt>
      <trkpt lat="28.10768330" lon="-17.2084100">
        <ele>928.00000</ele>
        <time>2009-09-22T13:35:00Z</time>
      </trkpt>
      <trkpt lat="28.10762000" lon="-17.2084950">
        <ele>928.00000</ele>
        <time>2009-09-22T13:35:04Z</time>
      </trkpt>
      <trkpt lat="28.10751160" lon="-17.2085600">
        <ele>928.00000</ele>
        <time>2009-09-22T13:35:09Z</time>
      </trkpt>
      <trkpt lat="28.10746830" lon="-17.2086666">
        <ele>928.00000</ele>
        <time>2009-09-22T13:35:13Z</time>
      </trkpt>
      <trkpt lat="28.10723330" lon="-17.2089883">
        <ele>934.00000</ele>
        <time>2009-09-22T13:35:28Z</time>
      </trkpt>
      <trkpt lat="28.10708330" lon="-17.2092466">
        <ele>977.00000</ele>
        <time>2009-09-22T13:35:39Z</time>
      </trkpt>
      <trkpt lat="28.10704000" lon="-17.2094183">
        <ele>977.00000</ele>
        <time>2009-09-22T13:35:45Z</time>
      </trkpt>
      <trkpt lat="28.10689000" lon="-17.2093533">
        <ele>977.00000</ele>
        <time>2009-09-22T13:35:51Z</time>
      </trkpt>
      <trkpt lat="28.10678160" lon="-17.2094400">
        <ele>977.00000</ele>
        <time>2009-09-22T13:35:57Z</time>
      </trkpt>
      <trkpt lat="28.10656830" lon="-17.2097183">
        <ele>989.00000</ele>
        <time>2009-09-22T13:36:10Z</time>
      </trkpt>
      <trkpt lat="28.10631000" lon="-17.2099750">
        <ele>989.00000</ele>
        <time>2009-09-22T13:36:23Z</time>
      </trkpt>
      <trkpt lat="28.10577330" lon="-17.2105766">
        <ele>1023.0000</ele>
        <time>2009-09-22T13:36:54Z</time>
      </trkpt>
      <trkpt lat="28.10577330" lon="-17.2107700">
        <ele>1023.0000</ele>
        <time>2009-09-22T13:37:00Z</time>
      </trkpt>
      <trkpt lat="28.10573160" lon="-17.2107483">
        <ele>1023.0000</ele>
        <time>2009-09-22T13:37:02Z</time>
      </trkpt>
      <trkpt lat="28.10575160" lon="-17.2107483">
        <ele>1023.0000</ele>
        <time>2009-09-22T13:37:03Z</time>
      </trkpt>
      <trkpt lat="28.10571000" lon="-17.2107050">
        <ele>1023.0000</ele>
        <time>2009-09-22T13:37:05Z</time>
      </trkpt>
      <trkpt lat="28.10551660" lon="-17.2102116">
        <ele>1017.0000</ele>
        <time>2009-09-22T13:37:24Z</time>
      </trkpt>
      <trkpt lat="28.10540830" lon="-17.2100400">
        <ele>1029.0000</ele>
        <time>2009-09-22T13:37:32Z</time>
      </trkpt>
      <trkpt lat="28.10508660" lon="-17.2098033">
        <ele>1029.0000</ele>
        <time>2009-09-22T13:37:47Z</time>
      </trkpt>
      <trkpt lat="28.10472160" lon="-17.2096316">
        <ele>1029.0000</ele>
        <time>2009-09-22T13:38:03Z</time>
      </trkpt>
      <trkpt lat="28.10399330" lon="-17.2094183">
        <ele>982.00000</ele>
        <time>2009-09-22T13:38:33Z</time>
      </trkpt>
      <trkpt lat="28.10369330" lon="-17.2092883">
        <ele>1031.0000</ele>
        <time>2009-09-22T13:38:46Z</time>
      </trkpt>
      <trkpt lat="28.10337000" lon="-17.2089033">
        <ele>1031.0000</ele>
        <time>2009-09-22T13:39:05Z</time>
      </trkpt>
      <trkpt lat="28.10335000" lon="-17.2085166">
        <ele>1033.0000</ele>
        <time>2009-09-22T13:39:18Z</time>
      </trkpt>
      <trkpt lat="28.10328500" lon="-17.2084300">
        <ele>1033.0000</ele>
        <time>2009-09-22T13:39:22Z</time>
      </trkpt>
      <trkpt lat="28.10311330" lon="-17.2082800">
        <ele>1033.0000</ele>
        <time>2009-09-22T13:39:31Z</time>
      </trkpt>
      <trkpt lat="28.10277000" lon="-17.2081950">
        <ele>1093.0000</ele>
        <time>2009-09-22T13:39:45Z</time>
      </trkpt>
      <trkpt lat="28.10255500" lon="-17.2081950">
        <ele>1093.0000</ele>
        <time>2009-09-22T13:39:54Z</time>
      </trkpt>
      <trkpt lat="28.10229830" lon="-17.2078516">
        <ele>1076.0000</ele>
        <time>2009-09-22T13:40:10Z</time>
      </trkpt>
      <trkpt lat="28.10208330" lon="-17.2074866">
        <ele>1123.0000</ele>
        <time>2009-09-22T13:40:25Z</time>
      </trkpt>
      <trkpt lat="28.10204000" lon="-17.2071216">
        <ele>1123.0000</ele>
        <time>2009-09-22T13:40:38Z</time>
      </trkpt>
      <trkpt lat="28.10212660" lon="-17.2066283">
        <ele>1106.0000</ele>
        <time>2009-09-22T13:40:56Z</time>
      </trkpt>
      <trkpt lat="28.10212660" lon="-17.2064566">
        <ele>1106.0000</ele>
        <time>2009-09-22T13:41:02Z</time>
      </trkpt>
      <trkpt lat="28.10229830" lon="-17.2059850">
        <ele>1119.0000</ele>
        <time>2009-09-22T13:41:20Z</time>
      </trkpt>
      <trkpt lat="28.10232000" lon="-17.2057050">
        <ele>1119.0000</ele>
        <time>2009-09-22T13:41:30Z</time>
      </trkpt>
      <trkpt lat="28.10240500" lon="-17.2053616">
        <ele>1115.0000</ele>
        <time>2009-09-22T13:41:43Z</time>
      </trkpt>
      <trkpt lat="28.10229830" lon="-17.2050400">
        <ele>1115.0000</ele>
        <time>2009-09-22T13:41:55Z</time>
      </trkpt>
      <trkpt lat="28.10244830" lon="-17.2046550">
        <ele>1115.0000</ele>
        <time>2009-09-22T13:42:10Z</time>
      </trkpt>
      <trkpt lat="28.10240500" lon="-17.2043966">
        <ele>1109.0000</ele>
        <time>2009-09-22T13:42:19Z</time>
      </trkpt>
      <trkpt lat="28.10206160" lon="-17.2038383">
        <ele>1137.0000</ele>
        <time>2009-09-22T13:42:43Z</time>
      </trkpt>
      <trkpt lat="28.10186830" lon="-17.2033233">
        <ele>1131.0000</ele>
        <time>2009-09-22T13:43:03Z</time>
      </trkpt>
      <trkpt lat="28.10174000" lon="-17.2028300">
        <ele>1122.0000</ele>
        <time>2009-09-22T13:43:21Z</time>
      </trkpt>
      <trkpt lat="28.10126830" lon="-17.2022083">
        <ele>1122.0000</ele>
        <time>2009-09-22T13:43:50Z</time>
      </trkpt>
      <trkpt lat="28.10111830" lon="-17.2018216">
        <ele>1105.0000</ele>
        <time>2009-09-22T13:44:05Z</time>
      </trkpt>
      <trkpt lat="28.10103160" lon="-17.2018000">
        <ele>1105.0000</ele>
        <time>2009-09-22T13:44:08Z</time>
      </trkpt>
      <trkpt lat="28.10107500" lon="-17.2018433">
        <ele>1105.0000</ele>
        <time>2009-09-22T13:44:10Z</time>
      </trkpt>
      <trkpt lat="28.10118160" lon="-17.2016283">
        <ele>1105.0000</ele>
        <time>2009-09-22T13:44:19Z</time>
      </trkpt>
      <trkpt lat="28.10150330" lon="-17.2013933">
        <ele>1112.0000</ele>
        <time>2009-09-22T13:44:35Z</time>
      </trkpt>
      <trkpt lat="28.10176160" lon="-17.2010283">
        <ele>1081.0000</ele>
        <time>2009-09-22T13:44:51Z</time>
      </trkpt>
      <trkpt lat="28.10201830" lon="-17.2001916">
        <ele>1057.0000</ele>
        <time>2009-09-22T13:45:22Z</time>
      </trkpt>
      <trkpt lat="28.10152500" lon="-17.1992033">
        <ele>1033.0000</ele>
        <time>2009-09-22T13:46:02Z</time>
      </trkpt>
      <trkpt lat="28.10156830" lon="-17.1985600">
        <ele>1020.0000</ele>
        <time>2009-09-22T13:46:25Z</time>
      </trkpt>
      <trkpt lat="28.10133160" lon="-17.1970800">
        <ele>990.00000</ele>
        <time>2009-09-22T13:47:18Z</time>
      </trkpt>
      <trkpt lat="28.10135330" lon="-17.1962000">
        <ele>959.00000</ele>
        <time>2009-09-22T13:47:49Z</time>
      </trkpt>
      <trkpt lat="28.10096660" lon="-17.1948483">
        <ele>1025.0000</ele>
        <time>2009-09-22T13:48:40Z</time>
      </trkpt>
      <trkpt lat="28.10075330" lon="-17.1944183">
        <ele>1025.0000</ele>
        <time>2009-09-22T13:48:57Z</time>
      </trkpt>
      <trkpt lat="28.10064500" lon="-17.1940750">
        <ele>1025.0000</ele>
        <time>2009-09-22T13:49:10Z</time>
      </trkpt>
      <trkpt lat="28.10077500" lon="-17.1931533">
        <ele>1012.0000</ele>
        <time>2009-09-22T13:49:43Z</time>
      </trkpt>
      <trkpt lat="28.10094660" lon="-17.1927883">
        <ele>1009.0000</ele>
        <time>2009-09-22T13:49:57Z</time>
      </trkpt>
      <trkpt lat="28.10098830" lon="-17.1924666">
        <ele>1009.0000</ele>
        <time>2009-09-22T13:50:09Z</time>
      </trkpt>
      <trkpt lat="28.10088160" lon="-17.1920800">
        <ele>984.00000</ele>
        <time>2009-09-22T13:50:23Z</time>
      </trkpt>
      <trkpt lat="28.10083830" lon="-17.1916300">
        <ele>984.00000</ele>
        <time>2009-09-22T13:50:39Z</time>
      </trkpt>
      <trkpt lat="28.10045160" lon="-17.1904283">
        <ele>946.00000</ele>
        <time>2009-09-22T13:51:24Z</time>
      </trkpt>
      <trkpt lat="28.10034500" lon="-17.1896983">
        <ele>974.00000</ele>
        <time>2009-09-22T13:51:51Z</time>
      </trkpt>
      <trkpt lat="28.10019500" lon="-17.1893116">
        <ele>949.00000</ele>
        <time>2009-09-22T13:52:05Z</time>
      </trkpt>
      <trkpt lat="28.10010830" lon="-17.1889683">
        <ele>949.00000</ele>
        <time>2009-09-22T13:52:18Z</time>
      </trkpt>
      <trkpt lat="28.09991660" lon="-17.1885400">
        <ele>933.00000</ele>
        <time>2009-09-22T13:52:35Z</time>
      </trkpt>
      <trkpt lat="28.09985160" lon="-17.1882600">
        <ele>933.00000</ele>
        <time>2009-09-22T13:52:45Z</time>
      </trkpt>
      <trkpt lat="28.09974500" lon="-17.1875100">
        <ele>930.00000</ele>
        <time>2009-09-22T13:53:12Z</time>
      </trkpt>
      <trkpt lat="28.09959330" lon="-17.1867366">
        <ele>905.00000</ele>
        <time>2009-09-22T13:53:40Z</time>
      </trkpt>
      <trkpt lat="28.09959330" lon="-17.1865866">
        <ele>905.00000</ele>
        <time>2009-09-22T13:53:45Z</time>
      </trkpt>
      <trkpt lat="28.09950830" lon="-17.1863500">
        <ele>952.00000</ele>
        <time>2009-09-22T13:53:54Z</time>
      </trkpt>
      <trkpt lat="28.09972330" lon="-17.1860716">
        <ele>872.00000</ele>
        <time>2009-09-22T13:54:07Z</time>
      </trkpt>
      <trkpt lat="28.09950830" lon="-17.1861783">
        <ele>927.00000</ele>
        <time>2009-09-22T13:54:17Z</time>
      </trkpt>
      <trkpt lat="28.09935830" lon="-17.1861783">
        <ele>927.00000</ele>
        <time>2009-09-22T13:54:23Z</time>
      </trkpt>
      <trkpt lat="28.09938000" lon="-17.1861150">
        <ele>927.00000</ele>
        <time>2009-09-22T13:54:25Z</time>
      </trkpt>
      <trkpt lat="28.09935830" lon="-17.1860933">
        <ele>927.00000</ele>
        <time>2009-09-22T13:54:26Z</time>
      </trkpt>
    </trkseg>
  </trk>
</gpx>

